Terminal Aerodrome Forecast
Issued by NWS

Home | Current Version | Previous Version | Text Only | Print | Product List | Glossary On
Versions: 1 2 3 4 5 6 7 8 9 10 11 12 13 14 15 16 17 18 19 20 21 22 23 24 25
000
FTUS46 KMFR 300338 AAB
TAFOTH
TAF AMD
KOTH 300338Z 3004/3024 33008KT P6SM BKN008
     FM300400 VRB04KT P6SM OVC008
     FM301100 15004KT 1/2SM FG OVC002
     FM301800 22006KT P6SM SCT002 BKN200=

USA.gov is the U.S. government's official web portal to all federal, state and local government web resources and services.